createdAt,value
2019-03-05T00:01:59.282Z,68.45
2019-03-05T00:04:28.008Z,68.05
2019-03-05T00:06:57.343Z,67.91
2019-03-05T00:09:25.965Z,67.91
2019-03-05T00:11:54.963Z,68.43
2019-03-05T00:14:23.854Z,68.43
2019-03-05T00:16:52.480Z,68.59
2019-03-05T00:19:21.806Z,68.59
2019-03-05T00:21:51.025Z,68.69
2019-03-05T00:25:12.259Z,68.29
2019-03-05T00:27:47.822Z,69.27
2019-03-05T00:30:47.813Z,68.90
2019-03-05T00:33:58.250Z,69.23
2019-03-05T00:36:35.062Z,69.15
2019-03-05T00:39:42.411Z,69.37
2019-03-05T00:42:48.217Z,69.37
2019-03-05T00:46:01.920Z,69.00
2019-03-05T00:48:38.905Z,69.00
2019-03-05T00:51:24.898Z,68.75
2019-03-05T00:54:38.395Z,68.86
2019-03-05T00:57:13.565Z,68.86
2019-03-05T01:00:10.004Z,69.12
2019-03-05T01:03:01.497Z,69.91
2019-03-05T01:05:41.041Z,69.42
2019-03-05T01:08:10.577Z,70.09
2019-03-05T01:10:39.872Z,70.09
2019-03-05T01:13:08.884Z,70.07
2019-03-05T01:15:37.861Z,69.81
2019-03-05T01:18:07.606Z,69.97
2019-03-05T01:20:36.565Z,69.72
2019-03-05T01:23:05.194Z,70.11
2019-03-05T01:25:33.977Z,70.64
2019-03-05T01:28:02.697Z,70.23
2019-03-05T01:30:40.853Z,70.23
2019-03-05T01:33:13.043Z,70.30
2019-03-05T01:35:50.291Z,69.92
2019-03-05T01:38:19.181Z,69.92
2019-03-05T01:40:52.571Z,70.30
2019-03-05T01:43:21.471Z,70.30
2019-03-05T01:45:50.091Z,70.90
2019-03-05T01:48:19.049Z,70.92
2019-03-05T01:50:48.349Z,71.31
2019-03-05T01:53:17.241Z,70.91
2019-03-05T01:55:45.989Z,72.02
2019-03-05T01:58:14.933Z,70.66
2019-03-05T02:00:43.638Z,70.66
2019-03-05T02:03:12.703Z,71.20
2019-03-05T02:05:41.624Z,71.35
2019-03-05T02:08:10.319Z,71.72
2019-03-05T02:10:38.998Z,71.61
2019-03-05T02:13:07.956Z,71.61
2019-03-05T02:15:37.262Z,72.31
2019-03-05T02:18:06.262Z,72.31
2019-03-05T02:20:34.955Z,72.47
2019-03-05T02:23:13.572Z,72.41
2019-03-05T02:26:06.376Z,72.34
2019-03-05T02:28:56.601Z,72.43
2019-03-05T02:32:28.281Z,72.43
2019-03-05T02:35:05.676Z,72.72
2019-03-05T02:38:18.886Z,73.15
2019-03-05T02:40:57.300Z,73.30
2019-03-05T02:43:51.077Z,73.30
2019-03-05T02:46:41.266Z,73.25
2019-03-05T02:49:32.914Z,73.25
2019-03-05T02:52:29.732Z,73.81
2019-03-05T02:55:33.241Z,73.14
2019-03-05T02:58:00.640Z,73.39
2019-03-05T03:01:01.309Z,73.39
2019-03-05T03:03:34.855Z,73.81
2019-03-05T03:06:08.884Z,74.60
2019-03-05T03:08:37.533Z,74.60
2019-03-05T03:11:06.262Z,74.17
2019-03-05T03:13:35.223Z,74.17
2019-03-05T03:16:04.203Z,74.64
2019-03-05T03:18:32.818Z,74.47
2019-03-05T03:21:01.767Z,74.29
2019-03-05T03:23:30.423Z,74.29
2019-03-05T03:25:59.461Z,74.36
2019-03-05T03:28:28.185Z,74.46
2019-03-05T03:30:57.142Z,74.59
2019-03-05T03:33:26.309Z,74.98
2019-03-05T03:35:54.948Z,74.69
2019-03-05T03:38:24.228Z,74.23
2019-03-05T03:40:53.239Z,74.23
2019-03-05T03:43:22.189Z,74.65
2019-03-05T03:45:51.145Z,74.67
2019-03-05T03:48:19.776Z,75.22
2019-03-05T03:50:48.786Z,74.38
2019-03-05T03:53:17.691Z,74.71
2019-03-05T03:55:46.875Z,74.71
2019-03-05T03:58:15.926Z,74.67
2019-03-05T04:00:44.640Z,74.68
2019-03-05T04:03:13.308Z,74.90
2019-03-05T04:05:42.077Z,74.90
2019-03-05T04:08:10.737Z,74.99
2019-03-05T04:10:39.424Z,74.99
2019-03-05T04:13:08.290Z,75.19
2019-03-05T04:15:36.965Z,75.26
2019-03-05T04:18:05.733Z,75.26
2019-03-05T04:20:36.999Z,75.66
2019-03-05T04:23:05.825Z,75.46
2019-03-05T04:25:34.888Z,75.21
2019-03-05T04:28:03.551Z,75.08
2019-03-05T04:30:32.581Z,75.30
2019-03-05T04:33:01.476Z,75.02
2019-03-05T04:35:30.364Z,75.42
2019-03-05T04:37:59.661Z,75.54
2019-03-05T04:40:28.573Z,75.54
2019-03-05T04:42:57.957Z,75.46
2019-03-05T04:45:37.195Z,75.76
2019-03-05T04:48:05.839Z,75.44
2019-03-05T04:50:56.695Z,76.28
2019-03-05T04:53:25.678Z,76.28
2019-03-05T04:55:54.380Z,75.93
2019-03-05T04:58:23.362Z,75.39
2019-03-05T05:00:52.061Z,75.39
2019-03-05T05:03:21.035Z,75.78
2019-03-05T05:05:49.684Z,76.19
2019-03-05T05:08:18.719Z,77.12
2019-03-05T05:10:47.717Z,78.32
2019-03-05T05:13:16.608Z,78.32
2019-03-05T05:15:45.919Z,79.27
2019-03-05T05:18:14.798Z,79.27
2019-03-05T05:20:43.789Z,79.27
2019-03-05T05:23:12.680Z,79.50
2019-03-05T05:25:41.672Z,79.60
2019-03-05T05:28:10.971Z,79.79
2019-03-05T05:30:40.707Z,79.66
2019-03-05T05:33:10.088Z,80.12
2019-03-05T05:35:38.821Z,79.62
2019-03-05T05:38:07.526Z,80.22
2019-03-05T05:40:38.193Z,80.22
2019-03-05T05:43:12.204Z,80.08
2019-03-05T05:45:51.342Z,79.48
2019-03-05T05:48:20.264Z,80.23
2019-03-05T05:50:49.637Z,80.50
2019-03-05T05:53:18.851Z,80.50
2019-03-05T05:55:47.913Z,80.17
2019-03-05T05:58:17.030Z,80.14
2019-03-05T06:00:48.491Z,80.25
2019-03-05T06:03:17.421Z,79.69
2019-03-05T06:05:46.108Z,79.82
2019-03-05T06:08:15.355Z,79.82
2019-03-05T06:10:44.328Z,79.19
2019-03-05T06:13:13.688Z,78.82
2019-03-05T06:15:42.846Z,78.82
2019-03-05T06:18:11.710Z,79.02
2019-03-05T06:20:42.704Z,79.02
2019-03-05T06:23:11.568Z,79.56
2019-03-05T06:25:40.202Z,79.56
2019-03-05T06:28:09.969Z,79.86
2019-03-05T06:30:38.901Z,80.83
2019-03-05T06:33:07.895Z,81.04
2019-03-05T06:35:36.504Z,80.74
2019-03-05T06:38:05.152Z,81.01
2019-03-05T06:40:34.115Z,81.53
2019-03-05T06:43:03.006Z,82.55
2019-03-05T06:45:31.683Z,82.35
2019-03-05T06:48:00.893Z,82.31
2019-03-05T06:50:29.783Z,81.95
2019-03-05T06:52:58.497Z,80.61
2019-03-05T06:55:27.770Z,80.61
2019-03-05T06:57:56.471Z,81.21
2019-03-05T07:00:29.516Z,80.75
2019-03-05T07:02:59.258Z,80.38
2019-03-05T07:06:04.070Z,80.38
2019-03-05T07:08:32.683Z,80.49
2019-03-05T07:11:42.627Z,80.49
2019-03-05T07:14:17.764Z,79.73
2019-03-05T07:17:18.403Z,83.90
2019-03-05T07:20:26.509Z,84.02
2019-03-05T07:23:17.825Z,83.41
2019-03-05T07:25:46.820Z,83.41
2019-03-05T07:28:16.021Z,82.16
2019-03-05T07:30:45.421Z,82.18
2019-03-05T07:33:14.722Z,82.18
2019-03-05T07:35:43.921Z,80.99
2019-03-05T07:38:12.963Z,80.99
2019-03-05T07:40:41.674Z,81.36
2019-03-05T07:43:10.396Z,79.80
2019-03-05T07:45:39.130Z,79.80
2019-03-05T07:48:08.070Z,79.24
2019-03-05T07:50:36.961Z,79.24
2019-03-05T07:53:05.956Z,77.53
2019-03-05T07:55:34.568Z,78.43
2019-03-05T07:58:03.548Z,77.81
2019-03-05T08:00:32.552Z,76.65
2019-03-05T08:03:01.667Z,76.65
2019-03-05T08:05:30.929Z,76.93
2019-03-05T08:08:37.094Z,75.87
2019-03-05T08:11:05.800Z,75.29
2019-03-05T08:13:43.983Z,75.29
2019-03-05T08:16:27.245Z,75.55
2019-03-05T08:18:56.308Z,75.71
2019-03-05T08:21:25.608Z,75.71
2019-03-05T08:23:54.916Z,75.71
2019-03-05T08:26:24.012Z,74.66
2019-03-05T08:28:53.005Z,74.66
2019-03-05T08:31:21.975Z,74.31
2019-03-05T08:33:51.296Z,74.02
2019-03-05T08:36:20.189Z,74.23
2019-03-05T08:38:49.177Z,72.51
2019-03-05T08:41:18.172Z,72.42
2019-03-05T08:43:47.066Z,72.42
2019-03-05T08:46:15.955Z,71.10
2019-03-05T08:48:44.605Z,71.10
2019-03-05T08:51:13.839Z,71.41
2019-03-05T08:53:49.525Z,70.88
2019-03-05T08:56:13.313Z,71.98
2019-03-05T08:58:41.910Z,71.98
2019-03-05T09:01:10.840Z,71.82
2019-03-05T09:03:39.934Z,70.81
2019-03-05T09:06:08.933Z,70.72
2019-03-05T09:08:38.582Z,69.57
2019-03-05T09:11:07.419Z,69.57
2019-03-05T09:13:36.424Z,70.57
2019-03-05T09:16:05.520Z,71.92
2019-03-05T09:18:34.158Z,71.37
2019-03-05T09:21:03.102Z,71.46
2019-03-05T09:23:31.988Z,71.46
2019-03-05T09:26:01.290Z,70.35
2019-03-05T09:28:30.279Z,71.04
2019-03-05T09:31:00.131Z,71.04
2019-03-05T09:33:28.746Z,70.97
2019-03-05T09:35:57.877Z,71.21
2019-03-05T09:38:26.481Z,71.47
2019-03-05T09:40:55.123Z,71.47
2019-03-05T09:43:24.142Z,71.26
2019-03-05T09:45:53.031Z,67.92
2019-03-05T09:48:21.923Z,68.35
2019-03-05T09:50:50.673Z,68.19
2019-03-05T09:53:19.913Z,72.18
2019-03-05T09:55:48.802Z,72.18
2019-03-05T09:58:19.410Z,71.94
2019-03-05T10:00:48.035Z,71.94
2019-03-05T10:03:18.444Z,72.66
2019-03-05T10:05:47.608Z,71.60
2019-03-05T10:08:16.297Z,73.08
2019-03-05T10:10:45.327Z,73.08
2019-03-05T10:13:14.216Z,72.83
2019-03-05T10:15:42.894Z,72.67
2019-03-05T10:18:13.229Z,72.34
2019-03-05T10:20:42.534Z,72.48
2019-03-05T10:23:11.447Z,72.48
2019-03-05T10:25:40.416Z,72.30
2019-03-05T10:28:09.465Z,70.89
2019-03-05T10:30:39.084Z,71.51
2019-03-05T10:33:10.570Z,70.94
2019-03-05T10:35:39.384Z,70.81
2019-03-05T10:38:09.172Z,71.68
2019-03-05T10:40:39.801Z,71.35
2019-03-05T10:43:09.831Z,72.05
2019-03-05T10:45:40.591Z,71.69
2019-03-05T10:48:09.412Z,70.48
2019-03-05T10:50:38.013Z,70.42
2019-03-05T10:53:07.068Z,69.19
2019-03-05T10:55:35.746Z,67.84
2019-03-05T10:58:04.728Z,68.36
2019-03-05T11:00:35.674Z,68.90
2019-03-05T11:03:04.411Z,69.08
2019-03-05T11:05:36.616Z,70.15
2019-03-05T11:08:05.703Z,70.02
2019-03-05T11:10:34.791Z,70.02
2019-03-05T11:13:03.590Z,69.79
2019-03-05T11:15:32.677Z,69.70
2019-03-05T11:18:01.615Z,69.57
2019-03-05T11:20:30.840Z,70.15
2019-03-05T11:23:00.476Z,70.30
2019-03-05T11:25:29.469Z,70.59
2019-03-05T11:27:59.179Z,70.92
2019-03-05T11:30:35.999Z,71.26
2019-03-05T11:32:58.765Z,70.15
2019-03-05T11:35:28.312Z,69.83
2019-03-05T11:37:57.103Z,70.68
2019-03-05T11:40:25.976Z,70.14
2019-03-05T11:42:54.695Z,69.68
2019-03-05T11:45:24.990Z,69.61
2019-03-05T11:47:54.407Z,69.75
2019-03-05T11:50:23.602Z,68.87
2019-03-05T11:52:52.572Z,68.77
2019-03-05T11:55:22.206Z,68.87
2019-03-05T11:57:51.302Z,68.28
2019-03-05T12:00:42.934Z,66.02
2019-03-05T12:03:11.670Z,66.98
2019-03-05T12:05:40.364Z,66.98
2019-03-05T12:08:09.715Z,64.64
2019-03-05T12:10:38.597Z,63.53
2019-03-05T12:13:07.271Z,65.83
2019-03-05T12:15:36.059Z,63.81
2019-03-05T12:18:04.761Z,63.49
2019-03-05T12:20:33.358Z,63.24
2019-03-05T12:23:06.748Z,61.27
2019-03-05T12:25:36.171Z,63.74
2019-03-05T12:28:10.358Z,62.93
2019-03-05T12:30:34.745Z,62.98
2019-03-05T12:33:03.369Z,61.81
2019-03-05T12:35:32.321Z,60.72
2019-03-05T12:38:01.622Z,61.28
2019-03-05T12:40:30.628Z,61.17
2019-03-05T12:42:59.232Z,62.40
2019-03-05T12:45:28.294Z,60.69
2019-03-05T12:47:56.917Z,59.72
2019-03-05T12:50:25.872Z,59.94
2019-03-05T12:52:54.970Z,59.68
2019-03-05T12:55:23.965Z,60.38
2019-03-05T12:57:52.939Z,62.17
2019-03-05T13:00:21.715Z,61.82
2019-03-05T13:02:50.946Z,59.91
2019-03-05T13:05:19.714Z,60.17
2019-03-05T13:07:52.516Z,58.89
2019-03-05T13:10:20.556Z,60.47
2019-03-05T13:12:49.584Z,61.60
2019-03-05T13:15:23.609Z,62.92
2019-03-05T13:17:52.862Z,62.33
2019-03-05T13:20:22.631Z,64.95
2019-03-05T13:22:52.434Z,64.95
2019-03-05T13:25:24.198Z,65.57
2019-03-05T13:27:52.452Z,65.77
2019-03-05T13:30:22.013Z,64.53
2019-03-05T13:32:54.080Z,64.53
2019-03-05T13:35:25.391Z,64.20
2019-03-05T13:37:53.757Z,64.55
2019-03-05T13:40:24.603Z,64.87
2019-03-05T13:42:53.690Z,64.61
2019-03-05T13:45:23.805Z,65.35
2019-03-05T13:47:59.759Z,63.87
2019-03-05T13:50:58.826Z,63.03
2019-03-05T13:54:00.992Z,63.27
2019-03-05T13:57:15.321Z,63.04
2019-03-05T13:59:50.540Z,60.69
2019-03-05T14:02:30.656Z,60.74
2019-03-05T14:05:19.237Z,60.41
2019-03-05T14:08:14.253Z,62.77
2019-03-05T14:10:43.457Z,61.79
2019-03-05T14:13:12.760Z,62.17
2019-03-05T14:15:43.074Z,60.92
2019-03-05T14:18:12.141Z,60.88
2019-03-05T14:20:41.160Z,60.15
2019-03-05T14:23:10.168Z,61.12
2019-03-05T14:25:39.376Z,60.29
2019-03-05T14:28:08.021Z,59.48
2019-03-05T14:30:37.654Z,60.93
2019-03-05T14:33:06.653Z,61.98
2019-03-05T14:35:35.650Z,62.66
2019-03-05T14:38:04.746Z,60.92
2019-03-05T14:40:33.470Z,60.78
2019-03-05T14:43:02.654Z,61.09
2019-03-05T14:45:33.677Z,60.02
2019-03-05T14:48:04.344Z,60.19
2019-03-05T14:50:34.114Z,60.51
2019-03-05T14:53:03.104Z,60.82
2019-03-05T14:55:32.521Z,60.09
2019-03-05T14:58:01.410Z,61.73
2019-03-05T15:00:30.385Z,61.52
2019-03-05T15:02:59.024Z,61.88
2019-03-05T15:05:28.072Z,60.49
2019-03-05T15:07:57.059Z,60.74
2019-03-05T15:10:26.074Z,61.14
2019-03-05T15:12:55.097Z,60.96
2019-03-05T15:15:26.950Z,62.13
2019-03-05T15:17:55.901Z,62.61
2019-03-05T15:20:24.942Z,62.76
2019-03-05T15:22:53.658Z,64.63
2019-03-05T15:25:22.975Z,64.74
2019-03-05T15:27:51.972Z,62.24
2019-03-05T15:30:22.037Z,63.09
2019-03-05T15:32:51.299Z,62.99
2019-03-05T15:35:20.251Z,64.28
2019-03-05T15:37:49.268Z,65.24
2019-03-05T15:40:18.629Z,65.29
2019-03-05T15:42:47.342Z,65.29
2019-03-05T15:45:17.551Z,66.08
2019-03-05T15:47:46.481Z,66.08
2019-03-05T15:50:17.244Z,66.47
2019-03-05T15:52:46.243Z,66.97
2019-03-05T15:55:15.204Z,66.38
2019-03-05T15:57:44.198Z,65.85
2019-03-05T16:00:18.575Z,67.21
2019-03-05T16:02:47.508Z,66.76
2019-03-05T16:05:20.837Z,66.11
2019-03-05T16:07:48.002Z,65.07
2019-03-05T16:10:18.718Z,66.75
2019-03-05T16:12:47.814Z,66.75
2019-03-05T16:15:18.797Z,66.41
2019-03-05T16:17:47.543Z,68.42
2019-03-05T16:20:16.682Z,67.92
2019-03-05T16:22:45.378Z,69.62
2019-03-05T16:25:14.990Z,69.83
2019-03-05T16:27:43.786Z,70.05
2019-03-05T16:30:34.292Z,70.38
2019-03-05T16:33:12.911Z,70.33
2019-03-05T16:35:59.722Z,70.99
2019-03-05T16:38:51.124Z,71.18
2019-03-05T16:41:41.751Z,71.06
2019-03-05T16:44:28.667Z,71.86
2019-03-05T16:47:11.064Z,71.41
2019-03-05T16:49:59.394Z,71.87
2019-03-05T16:52:38.235Z,72.08
2019-03-05T16:55:41.656Z,72.01
2019-03-05T16:58:18.369Z,72.96
2019-03-05T17:00:59.592Z,72.75
2019-03-05T17:03:37.296Z,72.65
2019-03-05T17:06:24.192Z,72.62
2019-03-05T17:09:05.487Z,73.21
2019-03-05T17:11:53.230Z,73.16
2019-03-05T17:14:21.952Z,72.93
2019-03-05T17:16:51.006Z,73.11
2019-03-05T17:19:19.997Z,72.95
2019-03-05T17:21:49.090Z,73.47
2019-03-05T17:24:18.377Z,72.76
2019-03-05T17:26:47.423Z,72.98
2019-03-05T17:29:16.379Z,72.35
2019-03-05T17:31:45.770Z,72.93
2019-03-05T17:34:14.480Z,72.75
2019-03-05T17:36:44.281Z,72.08
2019-03-05T17:39:18.780Z,72.08
2019-03-05T17:41:47.420Z,72.67
2019-03-05T17:44:16.508Z,72.49
2019-03-05T17:46:45.786Z,71.67
2019-03-05T17:49:14.411Z,71.67
2019-03-05T17:51:43.369Z,71.18
2019-03-05T17:54:12.373Z,71.18
2019-03-05T17:56:41.501Z,71.20
2019-03-05T17:59:10.374Z,71.20
2019-03-05T18:01:39.217Z,70.71
2019-03-05T18:04:08.332Z,70.71
2019-03-05T18:06:37.146Z,71.43
2019-03-05T18:09:07.080Z,70.68
2019-03-05T18:11:36.033Z,70.68
2019-03-05T18:14:04.804Z,71.07
2019-03-05T18:16:33.816Z,71.47
2019-03-05T18:19:02.705Z,71.94
2019-03-05T18:21:31.701Z,72.78
2019-03-05T18:24:00.692Z,72.33
2019-03-05T18:26:29.692Z,72.33
2019-03-05T18:28:58.397Z,72.83
2019-03-05T18:31:27.316Z,72.83
2019-03-05T18:33:56.565Z,73.08
2019-03-05T18:36:25.278Z,73.17
2019-03-05T18:38:54.476Z,73.17
2019-03-05T18:41:23.544Z,72.81
2019-03-05T18:43:53.815Z,73.57
2019-03-05T18:46:22.546Z,73.18
2019-03-05T18:48:51.542Z,73.18
2019-03-05T18:51:20.654Z,72.94
2019-03-05T18:53:49.465Z,73.18
2019-03-05T18:56:18.447Z,74.00
2019-03-05T18:58:47.126Z,74.00
2019-03-05T19:01:19.186Z,74.47
2019-03-05T19:03:47.857Z,74.61
2019-03-05T19:06:17.171Z,73.81
2019-03-05T19:08:46.067Z,73.81
2019-03-05T19:11:14.966Z,74.78
2019-03-05T19:13:43.626Z,74.78
2019-03-05T19:16:12.269Z,74.67
2019-03-05T19:18:40.930Z,74.51
2019-03-05T19:21:09.659Z,74.93
2019-03-05T19:23:38.898Z,74.45
2019-03-05T19:26:09.941Z,74.45
2019-03-05T19:28:41.161Z,75.57
2019-03-05T19:31:10.402Z,75.57
2019-03-05T19:33:39.380Z,75.63
2019-03-05T19:36:08.370Z,75.61
2019-03-05T19:38:37.083Z,75.93
2019-03-05T19:41:06.676Z,76.43
2019-03-05T19:43:35.832Z,76.05
2019-03-05T19:46:04.657Z,76.23
2019-03-05T19:48:33.631Z,75.85
2019-03-05T19:51:02.965Z,75.85
2019-03-05T19:53:32.043Z,76.11
2019-03-05T19:56:01.156Z,76.11
2019-03-05T19:58:30.442Z,76.35
2019-03-05T20:01:10.458Z,76.52
2019-03-05T20:03:39.104Z,76.63
2019-03-05T20:06:07.832Z,76.79
2019-03-05T20:08:40.206Z,76.79
2019-03-05T20:11:07.409Z,77.12
2019-03-05T20:13:36.270Z,76.99
2019-03-05T20:16:09.626Z,76.99
2019-03-05T20:18:38.575Z,77.48
2019-03-05T20:21:07.876Z,77.48
2019-03-05T20:23:36.788Z,77.56
2019-03-05T20:26:05.866Z,77.34
2019-03-05T20:28:35.881Z,77.58
2019-03-05T20:31:04.703Z,77.58
2019-03-05T20:33:33.741Z,77.92
2019-03-05T20:36:03.371Z,78.27
2019-03-05T20:38:32.579Z,78.94
2019-03-05T20:41:01.220Z,78.80
2019-03-05T20:43:30.360Z,78.61
2019-03-05T20:46:03.649Z,78.53
2019-03-05T20:48:32.843Z,79.19
2019-03-05T20:51:02.041Z,79.66
2019-03-05T20:53:31.305Z,79.98
2019-03-05T20:56:00.441Z,80.30
2019-03-05T20:58:29.512Z,79.96
2019-03-05T21:00:58.630Z,80.48
2019-03-05T21:03:27.301Z,80.53
2019-03-05T21:05:56.209Z,81.50
2019-03-05T21:08:24.837Z,80.96
2019-03-05T21:10:54.097Z,81.48
2019-03-05T21:13:23.597Z,81.36
2019-03-05T21:15:52.268Z,81.71
2019-03-05T21:18:21.176Z,81.67
2019-03-05T21:20:49.900Z,81.90
2019-03-05T21:23:18.959Z,82.22
2019-03-05T21:25:47.949Z,81.98
2019-03-05T21:28:16.567Z,82.19
2019-03-05T21:30:46.046Z,82.50
2019-03-05T21:33:15.063Z,82.54
2019-03-05T21:35:43.762Z,82.46
2019-03-05T21:38:12.697Z,82.76
2019-03-05T21:40:41.713Z,82.75
2019-03-05T21:43:10.703Z,82.40
2019-03-05T21:45:39.383Z,82.94
2019-03-05T21:48:08.105Z,83.21
2019-03-05T21:50:36.837Z,83.02
2019-03-05T21:53:06.079Z,83.11
2019-03-05T21:55:35.163Z,83.58
2019-03-05T21:58:03.957Z,83.40
2019-03-05T22:00:35.088Z,83.33
2019-03-05T22:03:04.398Z,83.30
2019-03-05T22:05:33.700Z,83.61
2019-03-05T22:08:02.696Z,83.85
2019-03-05T22:10:31.582Z,83.85
2019-03-05T22:13:00.206Z,83.47
2019-03-05T22:15:29.571Z,83.73
2019-03-05T22:17:58.175Z,83.94
2019-03-05T22:20:26.895Z,83.84
2019-03-05T22:22:55.529Z,84.04
2019-03-05T22:25:24.267Z,83.94
2019-03-05T22:27:53.618Z,84.07
2019-03-05T22:30:24.312Z,83.82
2019-03-05T22:32:53.242Z,83.98
2019-03-05T22:35:22.997Z,84.50
2019-03-05T22:37:52.058Z,84.33
2019-03-05T22:40:21.042Z,84.42
2019-03-05T22:42:49.674Z,84.76
2019-03-05T22:45:20.363Z,84.93
2019-03-05T22:47:49.699Z,85.39
2019-03-05T22:50:18.861Z,85.12
2019-03-05T22:52:48.160Z,85.39
2019-03-05T22:55:17.255Z,85.20
2019-03-05T22:57:46.262Z,85.06
2019-03-05T23:00:50.574Z,85.39
2019-03-05T23:03:20.567Z,85.45
2019-03-05T23:05:49.656Z,85.41
2019-03-05T23:08:18.666Z,85.46
2019-03-05T23:10:47.686Z,85.79
2019-03-05T23:13:17.386Z,86.06
2019-03-05T23:15:46.118Z,86.16
2019-03-05T23:18:15.473Z,86.03
2019-03-05T23:20:44.367Z,86.31
2019-03-05T23:23:13.282Z,86.40
2019-03-05T23:25:42.557Z,86.69
2019-03-05T23:28:11.559Z,86.20
2019-03-05T23:30:41.161Z,86.43
2019-03-05T23:33:10.152Z,86.08
2019-03-05T23:35:39.146Z,86.53
2019-03-05T23:38:07.852Z,86.67
2019-03-05T23:40:36.825Z,86.65
2019-03-05T23:43:06.534Z,86.95
2019-03-05T23:45:35.633Z,87.20
2019-03-05T23:48:04.321Z,87.29
2019-03-05T23:50:33.310Z,87.35
2019-03-05T23:53:01.950Z,87.75
2019-03-05T23:55:31.404Z,88.04
2019-03-05T23:58:00.669Z,88.11
